Time,TemperatureF,DewpointF,PressureIn,WindDirection,WindDirectionDegrees,WindSpeedMPH,WindSpeedGustMPH,Humidity,HourlyPrecipIn,Conditions,Clouds,dailyrainin,SoftwareType,DateUTC
2013-01-19 00:02:00,34.0,16.0,-100.00,West,260,11.0,14.0,48,-99.99,,,0.00,,2013-01-19 07:02:00,
2013-01-19 02:12:00,33.0,15.0,-100.00,West,275,11.0,14.0,47,-99.99,,,0.00,,2013-01-19 09:12:00,
2013-01-19 02:52:00,33.0,15.0,-100.00,West,275,11.0,14.0,47,-99.99,,,0.00,,2013-01-19 09:52:00,
2013-01-19 03:02:00,33.0,15.0,-100.00,West,275,11.0,14.0,47,-99.99,,,0.00,,2013-01-19 10:02:00,
2013-01-19 06:30:00,33.0,17.0,-100.00,WSW,255,6.0,9.0,51,-99.99,,,0.00,,2013-01-19 13:30:00,
2013-01-19 07:00:00,32.0,17.0,-100.00,West,265,8.0,10.0,54,-99.99,,,0.00,,2013-01-19 14:00:00,
2013-01-19 07:12:00,33.0,17.0,-100.00,WSW,255,6.0,9.0,51,-99.99,,,0.00,,2013-01-19 14:12:00,
2013-01-19 07:22:00,33.0,17.0,-100.00,WSW,255,6.0,9.0,51,-99.99,,,0.00,,2013-01-19 14:22:00,
2013-01-19 07:53:00,32.0,17.0,-100.00,West,265,8.0,10.0,54,-99.99,,,0.00,,2013-01-19 14:53:00,
2013-01-19 08:00:00,28.0,18.0,-100.00,West,275,3.0,5.0,66,-99.99,,,0.00,,2013-01-19 15:00:00,
2013-01-19 08:12:00,29.0,17.0,-100.00,WSW,255,3.0,6.0,60,-99.99,,,0.00,,2013-01-19 15:12:00,
2013-01-19 08:22:00,29.0,17.0,-100.00,WSW,255,3.0,6.0,60,-99.99,,,0.00,,2013-01-19 15:22:00,
2013-01-19 08:33:00,28.0,18.0,-100.00,West,275,3.0,5.0,66,-99.99,,,0.00,,2013-01-19 15:33:00,
2013-01-19 08:43:00,28.0,18.0,-100.00,West,275,3.0,5.0,66,-99.99,,,0.00,,2013-01-19 15:43:00,
2013-01-19 08:53:00,28.0,18.0,-100.00,West,275,3.0,5.0,66,-99.99,,,0.00,,2013-01-19 15:53:00,
2013-01-19 09:00:00,26.0,21.0,-100.00,West,275,6.0,9.0,81,-99.99,,,0.00,,2013-01-19 16:00:00,
2013-01-19 09:12:00,27.0,19.0,-100.00,West,275,4.0,6.0,74,-99.99,,,0.00,,2013-01-19 16:12:00,
2013-01-19 09:23:00,27.0,19.0,-100.00,West,275,4.0,6.0,74,-99.99,,,0.00,,2013-01-19 16:23:00,
2013-01-19 09:33:00,26.0,21.0,-100.00,West,275,6.0,9.0,81,-99.99,,,0.00,,2013-01-19 16:33:00,
2013-01-19 09:43:00,26.0,21.0,-100.00,West,275,6.0,9.0,81,-99.99,,,0.00,,2013-01-19 16:43:00,
2013-01-19 09:53:00,26.0,21.0,-100.00,West,275,6.0,9.0,81,-99.99,,,0.00,,2013-01-19 16:53:00,
2013-01-19 10:00:00,27.0,24.0,-100.00,West,265,4.0,6.0,87,-99.99,,,0.00,,2013-01-19 17:00:00,
2013-01-19 10:16:00,26.0,22.0,-100.00,West,265,4.0,6.0,87,-99.99,,,0.00,,2013-01-19 17:16:00,
2013-01-19 10:30:00,27.0,25.0,-100.00,West,275,6.0,9.0,92,-99.99,,,0.00,,2013-01-19 17:30:00,
2013-01-19 10:34:00,27.0,24.0,-100.00,West,265,4.0,6.0,87,-99.99,,,0.00,,2013-01-19 17:34:00,
2013-01-19 10:46:00,27.0,24.0,-100.00,West,265,4.0,6.0,87,-99.99,,,0.00,,2013-01-19 17:46:00,
2013-01-19 10:53:00,27.0,24.0,-100.00,West,265,4.0,6.0,87,-99.99,,,0.00,,2013-01-19 17:53:00,
2013-01-19 11:13:00,27.0,25.0,-100.00,West,275,6.0,9.0,92,-99.99,,,0.00,,2013-01-19 18:13:00,
2013-01-19 11:25:00,27.0,25.0,-100.00,West,275,6.0,9.0,92,-99.99,,,0.00,,2013-01-19 18:25:00,
2013-01-19 12:00:00,25.0,25.0,-100.00,West,275,4.0,6.0,98,-99.99,,,0.00,,2013-01-19 19:00:00,
2013-01-19 12:18:00,25.0,25.0,-100.00,West,280,3.0,3.0,98,-99.99,,,0.00,,2013-01-19 19:18:00,
2013-01-19 12:27:00,25.0,25.0,-100.00,West,280,3.0,3.0,98,-99.99,,,0.00,,2013-01-19 19:27:00,
2013-01-19 12:37:00,25.0,25.0,-100.00,West,275,4.0,6.0,98,-99.99,,,0.00,,2013-01-19 19:37:00,
2013-01-19 12:49:00,25.0,25.0,-100.00,West,275,4.0,6.0,98,-99.99,,,0.00,,2013-01-19 19:49:00,
2013-01-19 12:54:00,25.0,25.0,-100.00,West,275,4.0,6.0,98,-99.99,,,0.00,,2013-01-19 19:54:00,
2013-01-19 13:17:00,26.0,25.0,-100.00,WSW,250,3.0,6.0,98,-99.99,,,0.00,,2013-01-19 20:17:00,
2013-01-19 13:24:00,26.0,25.0,-100.00,WSW,250,3.0,6.0,98,-99.99,,,0.00,,2013-01-19 20:24:00,
2013-01-19 13:30:00,28.0,27.0,-100.00,North,-999,0.0,0.0,95,-99.99,,,0.00,,2013-01-19 20:30:00,
2013-01-19 13:35:00,26.0,25.0,-100.00,North,0,1.0,4.0,98,-99.99,,,-99.99,,2013-01-19 20:35:00,
2013-01-19 13:44:00,26.0,25.0,-100.00,North,0,1.0,4.0,98,-99.99,,,-99.99,,2013-01-19 20:44:00,
2013-01-19 13:54:00,26.0,25.0,-100.00,North,0,1.0,4.0,98,-99.99,,,-99.99,,2013-01-19 20:54:00,
2013-01-19 14:14:00,28.0,27.0,-100.00,North,-999,0.0,0.0,95,-99.99,,,0.00,,2013-01-19 21:14:00,
2013-01-19 14:24:00,28.0,27.0,-100.00,North,-999,0.0,0.0,95,-99.99,,,0.00,,2013-01-19 21:24:00,
2013-01-19 15:00:00,27.0,22.0,-100.00,East,85,6.0,8.0,82,-99.99,,,0.00,,2013-01-19 22:00:00,
2013-01-19 15:34:00,27.0,22.0,-100.00,East,85,6.0,8.0,82,-99.99,,,0.00,,2013-01-19 22:34:00,
2013-01-19 15:45:00,27.0,22.0,-100.00,East,85,6.0,8.0,82,-99.99,,,0.00,,2013-01-19 22:45:00,
2013-01-19 15:54:00,27.0,22.0,-100.00,East,85,6.0,8.0,82,-99.99,,,0.00,,2013-01-19 22:54:00,
2013-01-19 16:34:00,25.0,20.0,-100.00,East,85,8.0,9.0,81,-99.99,,,-99.99,,2013-01-19 23:34:00,
2013-01-19 16:44:00,25.0,20.0,-100.00,East,85,8.0,9.0,81,-99.99,,,-99.99,,2013-01-19 23:44:00,
2013-01-19 17:00:00,24.0,19.0,-100.00,East,100,6.0,6.0,81,-99.99,,,0.00,,2013-01-20 00:00:00,
2013-01-19 17:30:00,23.0,18.0,-100.00,East,100,3.0,3.0,81,-99.99,,,-99.99,,2013-01-20 00:30:00,
2013-01-19 17:35:00,24.0,19.0,-100.00,East,100,6.0,6.0,81,-99.99,,,0.00,,2013-01-20 00:35:00,
2013-01-19 17:45:00,24.0,19.0,-100.00,East,100,6.0,6.0,81,-99.99,,,0.00,,2013-01-20 00:45:00,
2013-01-19 17:53:00,24.0,19.0,-100.00,East,100,6.0,6.0,81,-99.99,,,0.00,,2013-01-20 00:53:00,
2013-01-19 18:17:00,23.0,18.0,-100.00,East,100,3.0,3.0,81,-99.99,,,-99.99,,2013-01-20 01:17:00,
2013-01-19 18:24:00,23.0,18.0,-100.00,East,100,3.0,3.0,81,-99.99,,,-99.99,,2013-01-20 01:24:00,
2013-01-19 20:12:00,31.0,17.0,-100.00,West,275,6.0,9.0,57,-99.99,,,0.00,,2013-01-20 03:12:00,
2013-01-19 20:53:00,31.0,17.0,-100.00,West,275,6.0,9.0,57,-99.99,,,0.00,,2013-01-20 03:53:00,
2013-01-19 21:04:00,31.0,17.0,-100.00,West,275,6.0,9.0,57,-99.99,,,0.00,,2013-01-20 04:04:00,
2013-01-19 23:52:00,29.0,16.0,-100.00,West,270,10.0,13.0,58,-99.99,,,0.00,,2013-01-20 06:52:00,